Etusivu
METAR-TAF:

METAR-TAF

Lentoasemat :

Bordj Badji Mokhtar, Algeria

Leveyspiiri: 21-22-30N, Pituuspiiri: 000-55-26E, korkeus merenpinnasta: 396 m

Tämänhetkinen sää

Tämä raportti tehtiin 4 tuntia ja 32 minuuttia sitten, kello 18.00 UTC
Tuuli 15 kn idästä
Lämpötila 43°C
Ilmanpaine 1009 hPa
Näkyvyys: 6000 m

METAR: DATM 051800Z 09015KT 6000 NSC 43/// Q1009

Aika: 23:32 (22:32 UTC)

Sääennuste

Tämä raportti tehtiin 5 tuntia ja 32 minuuttia sitten, kello 17.00 UTC
Ennuste voimassa 05. päivästä klo 18 UTC - 06. päivään klo 03 UTC
Tuuli 14 kn idästä
Näkyvyys: 6000 m
Ajoittain
05. päivästä klo 18 UTC - 05. päivään klo 21 UTC
Näkyvyys: 4000 m
hiekkaa

TAF: DATM 051700Z 0518/0603 08014KT 6000 NSC TEMPO 0518/0521 4000 SA

Säähavainnot ja -ennusteet yli 4000 lentoasemalta (METAR- ja TAF-raportit).

Käytössä olevat sääasemat on merkitty karttaan keltaisilla ja punaisilla pisteillä.

Aseta hiiri pisteen päälle nähdäksesi sääaseman nimen.

Klikkaa sitten nähdäksesi säähavainnot ja -ennusteet.

Kartan vaihtaminen: klikkaa mustalla rastilla varustettuja vihreitä pisteitä, niin voit zoomata sisään; viivalla varustettua vihreää pistettä, niin voit zoomata ulos tai vihreitä nuolia, niin pääset viereisille kartoille.


METAR-TAF: